Time;durP1;ratioP1;P1;durP2;ratioP2;P2;SDS_P1;SDS_P2;PMS_P1;PMS_P2;Temp;Humidity;BMP_temperature;BMP_pressure;BME280_temperature;BME280_humidity;BME280_pressure;Samples;Min_cycle;Max_cycle;Signal;HPM_P1;HPM_P2
2022/07/16 00:03:18;;;;;;;3.00;1.52;;;16.30;99.90;;;;;;5122370;27;20040;-65
2022/07/16 00:05:44;;;;;;;2.60;1.40;;;16.30;99.90;;;;;;5090492;28;20036;-63
2022/07/16 00:08:11;;;;;;;3.05;1.50;;;16.40;99.90;;;;;;5090618;28;20032;-63
2022/07/16 00:10:37;;;;;;;3.17;1.55;;;16.40;99.90;;;;;;5090815;28;20043;-63
2022/07/16 00:13:02;;;;;;;2.00;1.55;;;16.40;99.90;;;;;;5122219;27;20110;-64
2022/07/16 00:15:29;;;;;;;2.67;1.40;;;16.40;99.90;;;;;;5092694;28;20052;-65
2022/07/16 00:20:39;;;;;;;4.20;1.70;;;16.30;99.90;;;;;;5090274;28;20076;-62
2022/07/16 00:23:06;;;;;;;2.60;1.63;;;16.30;99.90;;;;;;5090442;28;20070;-65
2022/07/16 00:25:33;;;;;;;2.67;1.75;;;16.20;99.90;;;;;;5090661;28;20040;-65
2022/07/16 00:27:59;;;;;;;3.63;1.58;;;16.30;99.90;;;;;;5092409;28;20040;-63
2022/07/16 00:30:24;;;;;;;3.78;1.65;;;16.20;99.90;;;;;;5090182;28;20470;-65
2022/07/16 00:32:50;;;;;;;4.80;1.80;;;16.20;99.90;;;;;;5089406;28;20050;-64
2022/07/16 00:35:15;;;;;;;2.20;1.55;;;16.20;99.90;;;;;;5091342;28;20079;-62
2022/07/16 00:37:41;;;;;;;3.55;1.40;;;16.20;99.90;;;;;;5091161;28;20044;-64
2022/07/16 00:40:07;;;;;;;3.03;1.52;;;16.20;99.90;;;;;;5089506;28;20043;-65
2022/07/16 00:42:33;;;;;;;3.50;1.58;;;16.20;99.90;;;;;;5087907;28;20039;-64
2022/07/16 00:44:58;;;;;;;2.95;1.58;;;16.20;99.90;;;;;;5091479;28;20521;-63
2022/07/16 00:47:24;;;;;;;5.15;1.60;;;16.20;99.90;;;;;;5090592;28;20047;-64
2022/07/16 00:49:49;;;;;;;2.80;1.52;;;16.20;99.90;;;;;;5072519;28;20044;-64
2022/07/16 00:52:15;;;;;;;2.90;1.60;;;16.20;99.90;;;;;;5089554;28;20044;-64
2022/07/16 00:54:41;;;;;;;4.75;1.70;;;16.20;99.90;;;;;;5091092;28;20044;-64
2022/07/16 00:57:07;;;;;;;3.28;1.70;;;16.20;99.90;;;;;;5119927;27;20400;-64
2022/07/16 00:59:32;;;;;;;2.67;1.60;;;16.20;99.90;;;;;;5121725;27;20043;-64
2022/07/16 01:01:58;;;;;;;3.97;1.80;;;16.20;99.90;;;;;;5088654;28;20047;-64
2022/07/16 01:04:24;;;;;;;3.95;1.77;;;16.10;99.90;;;;;;5090669;28;20039;-64
2022/07/16 01:06:50;;;;;;;2.53;2.00;;;16.10;99.90;;;;;;5089656;28;20067;-65
2022/07/16 01:09:17;;;;;;;2.35;1.63;;;16.10;99.90;;;;;;5089313;28;20054;-62
2022/07/16 01:11:44;;;;;;;3.95;1.50;;;16.10;99.90;;;;;;5088607;28;20040;-64
2022/07/16 01:14:10;;;;;;;4.50;1.83;;;16.10;99.90;;;;;;5089904;28;20484;-65
2022/07/16 01:16:36;;;;;;;2.53;1.55;;;16.10;99.90;;;;;;5090789;28;20044;-64
2022/07/16 01:19:02;;;;;;;3.70;1.80;;;16.10;99.90;;;;;;5088667;28;20109;-64
2022/07/16 01:21:28;;;;;;;2.08;1.65;;;16.10;99.90;;;;;;5089683;28;20028;-64
2022/07/16 01:23:54;;;;;;;8.68;2.10;;;16.10;99.90;;;;;;5122871;27;20046;-64
2022/07/16 01:26:19;;;;;;;2.72;1.73;;;16.10;99.90;;;;;;5090606;28;20039;-64
2022/07/16 01:28:45;;;;;;;4.25;2.20;;;16.00;99.90;;;;;;5105084;28;20044;-65
2022/07/16 01:31:12;;;;;;;4.07;1.88;;;16.00;99.90;;;;;;5088232;28;20055;-64
2022/07/16 01:33:40;;;;;;;3.33;2.00;;;15.90;99.90;;;;;;5089781;28;20047;-64
2022/07/16 01:36:15;;;;;;;4.97;2.28;;;15.80;99.90;;;;;;5089196;28;20525;-65
2022/07/16 01:38:43;;;;;;;3.15;2.20;;;15.80;99.90;;;;;;5089861;28;20032;-63
2022/07/16 01:41:10;;;;;;;4.63;2.58;;;15.70;99.90;;;;;;5089225;28;20051;-65
2022/07/16 01:43:36;;;;;;;4.88;2.38;;;15.70;99.90;;;;;;5087848;28;20487;-63
2022/07/16 01:46:02;;;;;;;3.95;2.08;;;15.70;99.90;;;;;;5088828;28;20567;-63
2022/07/16 01:48:30;;;;;;;5.05;2.25;;;15.70;99.90;;;;;;5088376;28;20036;-64
2022/07/16 01:50:56;;;;;;;3.58;1.90;;;15.70;99.90;;;;;;5089642;28;20494;-64
2022/07/16 01:53:22;;;;;;;5.10;2.25;;;15.70;99.90;;;;;;5090286;28;20040;-64
2022/07/16 01:55:48;;;;;;;4.30;2.30;;;15.70;99.90;;;;;;5071654;28;20387;-65
2022/07/16 01:58:15;;;;;;;2.88;2.10;;;15.70;99.90;;;;;;5090443;28;20040;-63
2022/07/16 02:00:43;;;;;;;7.82;2.30;;;15.70;99.90;;;;;;5091536;28;20127;-64
2022/07/16 02:03:08;;;;;;;6.28;2.33;;;15.70;99.90;;;;;;5087347;28;20071;-64
2022/07/16 02:05:35;;;;;;;3.78;2.05;;;15.70;99.90;;;;;;5073361;28;20032;-64
2022/07/16 02:08:02;;;;;;;3.80;1.95;;;15.80;99.90;;;;;;5070833;28;20059;-64
2022/07/16 02:10:28;;;;;;;5.90;2.15;;;15.80;99.90;;;;;;5088268;28;20048;-65
2022/07/16 02:12:53;;;;;;;3.92;1.70;;;15.80;99.90;;;;;;5088915;28;20051;-65
2022/07/16 02:15:19;;;;;;;4.20;1.30;;;15.80;99.90;;;;;;5088281;28;20490;-64
2022/07/16 02:17:45;;;;;;;4.93;1.40;;;15.80;99.90;;;;;;5090263;28;20039;-64
2022/07/16 02:20:11;;;;;;;4.72;1.38;;;15.80;99.90;;;;;;5122161;27;20063;-64
2022/07/16 02:22:37;;;;;;;2.63;1.10;;;15.80;99.90;;;;;;5092810;28;20028;-64
2022/07/16 02:25:04;;;;;;;4.43;1.42;;;15.80;99.90;;;;;;5092488;28;20039;-64
2022/07/16 02:27:30;;;;;;;4.95;1.60;;;15.80;99.90;;;;;;5092390;28;20044;-64
2022/07/16 02:29:55;;;;;;;2.28;1.10;;;15.80;99.90;;;;;;5092270;28;20049;-65
2022/07/16 02:32:21;;;;;;;3.22;1.17;;;15.80;99.90;;;;;;5093597;28;20130;-64
2022/07/16 02:34:48;;;;;;;3.35;1.23;;;15.80;99.90;;;;;;5091076;28;20048;-63
2022/07/16 02:37:14;;;;;;;1.77;1.17;;;15.80;99.90;;;;;;5092317;28;20066;-63
2022/07/16 02:39:40;;;;;;;4.45;1.33;;;15.80;99.90;;;;;;5093678;28;20573;-64
2022/07/16 02:42:05;;;;;;;2.25;1.00;;;15.70;99.90;;;;;;5091025;28;20040;-65
2022/07/16 02:44:31;;;;;;;5.78;1.55;;;15.70;99.90;;;;;;5092245;28;20052;-64
2022/07/16 02:46:57;;;;;;;4.47;0.90;;;15.70;99.90;;;;;;5091807;28;20536;-64
2022/07/16 02:49:22;;;;;;;6.22;1.30;;;15.70;99.90;;;;;;5091726;28;20067;-64
2022/07/16 02:51:48;;;;;;;1.80;0.93;;;15.60;99.90;;;;;;5076731;28;20059;-64
2022/07/16 02:54:14;;;;;;;2.47;1.00;;;15.60;99.90;;;;;;5126377;27;20042;-64
2022/07/16 02:56:39;;;;;;;3.35;1.20;;;15.60;99.90;;;;;;5091608;28;20127;-65
2022/07/16 02:59:05;;;;;;;4.60;1.33;;;15.60;99.90;;;;;;5092268;28;20040;-64
2022/07/16 03:01:30;;;;;;;4.05;1.00;;;15.50;99.90;;;;;;5091409;28;20074;-65
2022/07/16 03:03:56;;;;;;;6.35;1.17;;;15.50;99.90;;;;;;5092460;28;20047;-64
2022/07/16 03:06:22;;;;;;;2.63;0.90;;;15.50;99.90;;;;;;5092162;28;20059;-63
2022/07/16 03:08:48;;;;;;;3.42;1.40;;;15.50;99.90;;;;;;5090527;28;20040;-63
2022/07/16 03:11:14;;;;;;;3.13;1.15;;;15.50;99.90;;;;;;5092990;28;20036;-65
2022/07/16 03:13:40;;;;;;;4.60;1.48;;;15.50;99.90;;;;;;5093094;28;20755;-64
2022/07/16 03:16:06;;;;;;;4.13;1.10;;;15.50;99.90;;;;;;5091145;28;20055;-64
2022/07/16 03:18:32;;;;;;;4.47;1.30;;;15.50;99.90;;;;;;5090936;28;20043;-64
2022/07/16 03:20:57;;;;;;;2.30;0.90;;;15.50;99.90;;;;;;5092633;28;20048;-64
2022/07/16 03:23:23;;;;;;;4.13;1.00;;;15.50;99.90;;;;;;5090651;28;20123;-64
2022/07/16 03:25:48;;;;;;;2.95;1.23;;;15.50;99.90;;;;;;5125579;27;20044;-64
2022/07/16 03:28:14;;;;;;;1.92;1.00;;;15.40;99.90;;;;;;5091754;28;20494;-64
2022/07/16 03:30:40;;;;;;;5.25;1.25;;;15.40;99.90;;;;;;5091103;28;20074;-64
2022/07/16 03:33:06;;;;;;;4.90;1.30;;;15.40;99.90;;;;;;5123316;27;20509;-63
2022/07/16 03:35:32;;;;;;;4.47;1.02;;;15.40;99.90;;;;;;5089528;28;20059;-64
2022/07/16 03:40:42;;;;;;;2.90;0.90;;;15.40;99.90;;;;;;5090539;28;20398;-64
2022/07/16 03:43:08;;;;;;;5.88;1.10;;;15.40;99.90;;;;;;5091771;28;20024;-65
2022/07/16 03:45:33;;;;;;;4.55;1.10;;;15.30;99.90;;;;;;5092850;28;20035;-65
2022/07/16 03:47:59;;;;;;;4.28;1.15;;;15.30;99.90;;;;;;5091090;28;20040;-65
2022/07/16 03:50:25;;;;;;;2.60;1.08;;;15.30;99.90;;;;;;5089840;28;20040;-63
2022/07/16 03:52:50;;;;;;;3.05;1.00;;;15.30;99.90;;;;;;5091761;28;20035;-64
2022/07/16 03:55:16;;;;;;;4.40;1.17;;;15.30;99.90;;;;;;5090989;28;20040;-63
2022/07/16 03:57:43;;;;;;;2.75;1.00;;;15.30;99.90;;;;;;5090991;28;20051;-64
2022/07/16 04:00:10;;;;;;;3.95;0.95;;;15.30;99.90;;;;;;5090456;28;20048;-64
2022/07/16 04:02:35;;;;;;;3.08;1.02;;;15.30;99.90;;;;;;5090691;28;20487;-65
2022/07/16 04:05:01;;;;;;;5.28;1.10;;;15.30;99.90;;;;;;5123068;27;20080;-64
2022/07/16 04:07:28;;;;;;;3.95;1.25;;;15.30;99.90;;;;;;5073767;28;20044;-65
2022/07/16 04:09:54;;;;;;;4.45;1.20;;;15.30;99.90;;;;;;5091323;28;20036;-63
2022/07/16 04:12:22;;;;;;;6.25;1.00;;;15.30;99.90;;;;;;5090451;28;20055;-63
2022/07/16 04:14:48;;;;;;;4.20;1.42;;;15.30;99.90;;;;;;5090457;28;20035;-63
2022/07/16 04:17:13;;;;;;;2.95;0.90;;;15.30;99.90;;;;;;5090269;28;20145;-64
2022/07/16 04:19:39;;;;;;;3.50;1.23;;;15.30;99.90;;;;;;5092556;28;20048;-66
2022/07/16 04:22:05;;;;;;;5.80;1.20;;;15.20;99.90;;;;;;5089541;28;20507;-65
2022/07/16 04:24:30;;;;;;;4.75;1.13;;;15.20;99.90;;;;;;5124202;27;20046;-64
2022/07/16 04:26:56;;;;;;;3.88;1.45;;;15.20;99.90;;;;;;5090297;28;20032;-65
2022/07/16 04:29:21;;;;;;;5.80;1.23;;;15.10;99.90;;;;;;5091195;28;20131;-65
2022/07/16 04:31:47;;;;;;;3.78;1.15;;;15.10;99.90;;;;;;5089989;28;20054;-64
2022/07/16 04:34:13;;;;;;;5.53;1.27;;;15.10;99.90;;;;;;5120174;27;20062;-63
2022/07/16 04:36:38;;;;;;;4.18;1.20;;;15.10;99.90;;;;;;5089371;28;20129;-63
2022/07/16 04:39:04;;;;;;;6.03;1.48;;;15.10;99.90;;;;;;5123680;27;20548;-63
2022/07/16 04:41:29;;;;;;;3.92;1.20;;;15.10;99.90;;;;;;5120600;27;20064;-65
2022/07/16 04:43:55;;;;;;;5.72;1.70;;;15.10;99.90;;;;;;5091797;28;20032;-66
2022/07/16 04:46:21;;;;;;;5.95;1.33;;;15.10;99.90;;;;;;5122955;27;20565;-64
2022/07/16 04:48:46;;;;;;;5.43;1.20;;;15.10;99.90;;;;;;5122260;27;20131;-63
2022/07/16 04:51:12;;;;;;;4.97;1.30;;;15.20;99.90;;;;;;5089421;28;20071;-64
2022/07/16 04:53:37;;;;;;;4.03;1.10;;;15.20;99.90;;;;;;5090671;28;20370;-63
2022/07/16 04:56:04;;;;;;;4.95;1.30;;;15.20;99.90;;;;;;5089890;28;20036;-64
2022/07/16 04:58:29;;;;;;;3.17;1.30;;;15.20;99.90;;;;;;5092615;28;20032;-64
2022/07/16 05:00:55;;;;;;;7.13;1.83;;;15.30;99.90;;;;;;5089133;28;20044;-63
2022/07/16 05:03:22;;;;;;;5.07;1.30;;;15.30;99.90;;;;;;5089549;28;20039;-65
2022/07/16 05:05:49;;;;;;;5.40;1.30;;;15.30;99.90;;;;;;5089849;28;20044;-63
2022/07/16 05:08:15;;;;;;;3.30;1.00;;;15.30;99.90;;;;;;5089349;28;20032;-63
2022/07/16 05:10:41;;;;;;;6.35;1.30;;;15.40;99.90;;;;;;5072890;28;20133;-64
2022/07/16 05:13:07;;;;;;;6.80;1.35;;;15.40;99.90;;;;;;5089163;28;20040;-64
2022/07/16 05:15:33;;;;;;;3.50;0.95;;;15.50;99.90;;;;;;5070332;28;20063;-63
2022/07/16 05:17:59;;;;;;;4.90;1.52;;;15.60;99.90;;;;;;5072598;28;20836;-64
2022/07/16 05:20:25;;;;;;;4.82;1.10;;;15.60;99.90;;;;;;5088577;28;20059;-64
2022/07/16 05:22:51;;;;;;;4.95;1.33;;;15.70;99.90;;;;;;5089426;28;20039;-66
2022/07/16 05:25:17;;;;;;;7.07;1.20;;;15.70;99.90;;;;;;5071985;28;20064;-64
2022/07/16 05:27:43;;;;;;;4.72;1.42;;;15.80;99.90;;;;;;5102749;28;20058;-64
2022/07/16 05:30:09;;;;;;;6.38;1.20;;;15.80;99.90;;;;;;5090052;28;20048;-65
2022/07/16 05:32:36;;;;;;;7.18;1.17;;;15.90;99.90;;;;;;5089587;28;20046;-64
2022/07/16 05:35:02;;;;;;;5.10;1.23;;;16.00;99.90;;;;;;5072620;28;20050;-65
2022/07/16 05:37:28;;;;;;;4.28;1.30;;;16.00;99.90;;;;;;5089581;28;20120;-65
2022/07/16 05:39:53;;;;;;;6.40;1.30;;;16.00;99.90;;;;;;5089231;28;20099;-63
2022/07/16 05:42:19;;;;;;;7.25;1.10;;;16.00;99.90;;;;;;5090441;28;20081;-63
2022/07/16 05:44:45;;;;;;;5.68;1.17;;;16.00;99.90;;;;;;5089913;28;20398;-62
2022/07/16 05:47:10;;;;;;;5.95;1.40;;;16.10;99.90;;;;;;5086971;28;20036;-65
2022/07/16 05:49:36;;;;;;;5.43;1.27;;;16.20;99.90;;;;;;5087484;28;20105;-63
2022/07/16 05:52:02;;;;;;;4.93;1.10;;;16.20;99.90;;;;;;5088234;28;20067;-63
2022/07/16 05:54:27;;;;;;;3.53;1.10;;;16.20;99.90;;;;;;5091425;28;20085;-65
2022/07/16 05:56:53;;;;;;;4.82;1.00;;;16.00;99.90;;;;;;5094208;28;20034;-65
2022/07/16 05:59:18;;;;;;;6.05;1.73;;;15.90;99.90;;;;;;5127027;27;20428;-63
2022/07/16 06:01:44;;;;;;;5.68;1.00;;;15.90;99.90;;;;;;5094289;28;20032;-64
2022/07/16 06:04:10;;;;;;;5.10;1.17;;;15.80;99.90;;;;;;5093845;28;20087;-64
2022/07/16 06:06:35;;;;;;;7.82;1.33;;;15.80;99.90;;;;;;5093077;28;20035;-64
2022/07/16 06:09:01;;;;;;;7.40;1.30;;;15.80;99.90;;;;;;5125397;27;20036;-65
2022/07/16 06:11:27;;;;;;;5.32;1.00;;;16.00;99.90;;;;;;5093023;28;20619;-65
2022/07/16 06:13:53;;;;;;;3.63;1.00;;;16.10;99.90;;;;;;5092279;28;20032;-65
2022/07/16 06:16:20;;;;;;;4.80;1.05;;;16.30;99.90;;;;;;5085070;28;20051;-65
2022/07/16 06:18:46;;;;;;;4.32;0.90;;;16.40;99.90;;;;;;5092578;28;20040;-64
2022/07/16 06:21:12;;;;;;;5.50;1.02;;;16.50;99.90;;;;;;5091720;28;20058;-63
2022/07/16 06:23:38;;;;;;;5.15;1.77;;;16.60;99.90;;;;;;5092083;28;20093;-64
2022/07/16 06:26:03;;;;;;;5.80;1.17;;;16.70;99.90;;;;;;5119794;27;20063;-64
2022/07/16 06:28:30;;;;;;;5.82;1.05;;;16.80;99.90;;;;;;5093431;28;20374;-63
2022/07/16 06:30:55;;;;;;;4.82;1.00;;;16.90;99.90;;;;;;5092921;28;20112;-63
2022/07/16 06:33:21;;;;;;;3.72;0.80;;;16.90;99.90;;;;;;5095264;28;20194;-63
2022/07/16 06:35:47;;;;;;;6.38;1.20;;;16.90;99.90;;;;;;5126382;27;20083;-64
2022/07/16 06:38:13;;;;;;;3.92;0.80;;;17.00;99.90;;;;;;5125578;27;20149;-64
2022/07/16 06:40:43;;;;;;;6.22;1.10;;;16.90;99.90;;;;;;5093243;28;20651;-62
2022/07/16 06:43:09;;;;;;;6.80;0.93;;;17.00;99.90;;;;;;5091355;28;20044;-64
2022/07/16 06:45:35;;;;;;;4.93;0.90;;;16.90;99.90;;;;;;5091756;28;20046;-64
2022/07/16 06:48:00;;;;;;;7.30;1.10;;;16.80;99.90;;;;;;5090511;28;20039;-64
2022/07/16 06:50:26;;;;;;;4.07;1.13;;;16.80;99.90;;;;;;5092900;28;20074;-63
2022/07/16 06:52:52;;;;;;;6.32;1.00;;;17.00;99.90;;;;;;5126012;27;20048;-65
2022/07/16 06:55:18;;;;;;;4.78;0.90;;;17.10;99.90;;;;;;5126029;27;20398;-65
2022/07/16 06:57:44;;;;;;;6.80;1.20;;;17.30;99.90;;;;;;5091048;28;20089;-64
2022/07/16 07:00:10;;;;;;;5.38;1.08;;;17.40;99.90;;;;;;5093173;28;20036;-63
2022/07/16 07:02:35;;;;;;;5.82;1.40;;;17.60;99.90;;;;;;5093158;28;20051;-65
2022/07/16 07:05:01;;;;;;;7.38;1.27;;;17.80;99.90;;;;;;5085763;28;20044;-64
2022/07/16 07:07:27;;;;;;;4.07;0.90;;;17.80;99.90;;;;;;5088502;28;20032;-65
2022/07/16 07:09:52;;;;;;;5.07;1.10;;;17.70;99.90;;;;;;5087023;28;20054;-64
2022/07/16 07:12:18;;;;;;;6.57;0.95;;;17.40;99.90;;;;;;5122025;27;20036;-64
2022/07/16 07:14:44;;;;;;;7.93;1.42;;;17.20;99.90;;;;;;5120680;27;20052;-63
2022/07/16 07:17:09;;;;;;;4.63;0.90;;;17.00;99.90;;;;;;5122421;27;20039;-64
2022/07/16 07:19:35;;;;;;;3.80;1.02;;;16.90;99.90;;;;;;5123136;27;20109;-63
2022/07/16 07:22:01;;;;;;;9.10;0.90;;;16.80;99.90;;;;;;5090882;28;20032;-64
2022/07/16 07:24:27;;;;;;;4.05;0.85;;;16.70;99.90;;;;;;5091754;28;20064;-64
2022/07/16 07:26:52;;;;;;;9.02;1.15;;;16.60;99.90;;;;;;5091178;28;20028;-64
2022/07/16 07:29:18;;;;;;;5.43;0.90;;;16.80;99.90;;;;;;5125388;27;20092;-63
2022/07/16 07:31:43;;;;;;;8.82;1.10;;;17.00;99.90;;;;;;5089684;28;20036;-62
2022/07/16 07:34:09;;;;;;;8.55;0.90;;;17.30;99.90;;;;;;5092282;28;20046;-64
2022/07/16 07:36:35;;;;;;;5.50;1.05;;;17.60;99.90;;;;;;5091056;28;20071;-64
2022/07/16 07:39:00;;;;;;;4.60;0.77;;;17.90;99.90;;;;;;5090762;28;20040;-64
2022/07/16 07:41:26;;;;;;;5.90;0.85;;;18.10;99.90;;;;;;5090730;28;20039;-64
2022/07/16 07:43:51;;;;;;;5.32;1.08;;;18.30;99.90;;;;;;5089468;28;20051;-65
2022/07/16 07:46:18;;;;;;;3.72;0.98;;;18.40;99.90;;;;;;5089394;28;20032;-63
2022/07/16 07:48:43;;;;;;;5.93;0.95;;;18.30;99.90;;;;;;5092040;28;20040;-63
2022/07/16 07:51:10;;;;;;;4.53;1.10;;;18.00;99.90;;;;;;5091980;28;20118;-63
2022/07/16 07:53:36;;;;;;;5.40;0.88;;;17.80;99.90;;;;;;5119053;27;20036;-65
2022/07/16 07:56:02;;;;;;;5.97;0.85;;;17.60;99.90;;;;;;5122552;27;20128;-64
2022/07/16 07:58:28;;;;;;;5.70;0.93;;;17.40;99.90;;;;;;5088602;28;20089;-65
2022/07/16 08:00:54;;;;;;;4.82;0.70;;;17.30;99.90;;;;;;5092074;28;20044;-64
2022/07/16 08:03:21;;;;;;;6.13;0.95;;;17.20;99.90;;;;;;5091605;28;20039;-63
2022/07/16 08:05:47;;;;;;;6.53;0.73;;;17.20;99.90;;;;;;5084444;28;20043;-65
2022/07/16 08:08:12;;;;;;;3.65;0.90;;;17.10;99.90;;;;;;5089873;28;20047;-64
2022/07/16 08:10:38;;;;;;;3.75;1.00;;;17.00;99.90;;;;;;5121699;27;20119;-65
2022/07/16 08:13:04;;;;;;;5.38;0.80;;;17.00;99.90;;;;;;5091523;28;20050;-66
2022/07/16 08:15:30;;;;;;;5.00;0.90;;;17.00;99.90;;;;;;5091558;28;20032;-64
2022/07/16 08:17:55;;;;;;;3.60;0.80;;;17.30;99.90;;;;;;5088042;28;20028;-63
2022/07/16 08:20:21;;;;;;;1.92;0.60;;;17.20;99.90;;;;;;5122842;27;20036;-65
2022/07/16 08:22:47;;;;;;;5.78;0.80;;;17.10;99.90;;;;;;5089571;28;20036;-64
2022/07/16 08:27:57;;;;;;;6.25;1.10;;;17.00;99.90;;;;;;5089660;28;20048;-64
2022/07/16 08:30:23;;;;;;;3.38;0.70;;;17.10;99.90;;;;;;5092385;28;20097;-65
2022/07/16 08:32:48;;;;;;;3.65;0.70;;;17.40;99.90;;;;;;5117914;27;20092;-65
2022/07/16 08:35:14;;;;;;;6.10;0.60;;;17.90;99.90;;;;;;5090038;28;20093;-64
2022/07/16 08:37:45;;;;;;;5.07;0.90;;;18.30;99.90;;;;;;5091255;28;20043;-65
2022/07/16 08:40:14;;;;;;;9.43;1.17;;;18.80;99.90;;;;;;5090012;28;20109;-65
2022/07/16 08:42:40;;;;;;;6.50;0.80;;;19.00;99.90;;;;;;5087580;28;20050;-63
2022/07/16 08:45:08;;;;;;;3.92;0.68;;;19.00;99.90;;;;;;5087689;28;20075;-65
2022/07/16 08:47:34;;;;;;;4.75;0.80;;;19.10;99.90;;;;;;5089754;28;20051;-65
2022/07/16 08:50:02;;;;;;;1.20;0.40;;;19.10;99.80;;;;;;5091187;28;20390;-65
2022/07/16 08:52:30;;;;;;;3.78;0.90;;;18.80;99.50;;;;;;5087438;28;20047;-66
2022/07/16 08:54:56;;;;;;;1.90;0.57;;;18.60;99.90;;;;;;5088512;28;20590;-64
2022/07/16 08:57:24;;;;;;;2.92;0.80;;;18.40;99.50;;;;;;5088110;28;20041;-65
2022/07/16 08:59:51;;;;;;;3.55;0.60;;;18.30;99.60;;;;;;5089469;28;20032;-64
2022/07/16 09:02:17;;;;;;;3.30;1.00;;;18.20;99.70;;;;;;5089414;28;20044;-65
2022/07/16 09:04:43;;;;;;;2.17;0.95;;;18.00;98.70;;;;;;5088902;28;20449;-64
2022/07/16 09:07:13;;;;;;;2.70;0.80;;;18.20;98.40;;;;;;5086815;28;20075;-64
2022/07/16 09:09:39;;;;;;;3.28;0.80;;;18.60;99.10;;;;;;5089907;28;20525;-65
2022/07/16 09:12:05;;;;;;;1.65;0.65;;;19.10;99.00;;;;;;5088708;28;20039;-65
2022/07/16 09:14:31;;;;;;;7.15;1.00;;;19.20;98.20;;;;;;5089122;28;20409;-66
2022/07/16 09:16:56;;;;;;;4.03;0.75;;;19.30;97.70;;;;;;5090120;28;20036;-65
2022/07/16 09:19:28;;;;;;;2.58;0.63;;;19.60;96.80;;;;;;5090807;28;20044;-65
2022/07/16 09:22:10;;;;;;;4.72;0.60;;;19.60;96.70;;;;;;5088360;28;20044;-64
2022/07/16 09:24:40;;;;;;;2.40;0.73;;;19.50;96.90;;;;;;5090809;28;20464;-65
2022/07/16 09:27:14;;;;;;;3.28;0.50;;;19.30;96.50;;;;;;5087902;28;20088;-65
2022/07/16 09:29:50;;;;;;;2.75;0.50;;;19.20;96.50;;;;;;5089053;28;20166;-66
2022/07/16 09:32:27;;;;;;;5.78;0.90;;;19.40;96.00;;;;;;5119403;27;20039;-65
2022/07/16 09:35:00;;;;;;;4.40;0.95;;;19.70;96.20;;;;;;5072060;28;20074;-64
2022/07/16 09:37:26;;;;;;;5.57;1.10;;;19.90;96.00;;;;;;5122358;28;20046;-65
2022/07/16 09:39:51;;;;;;;3.25;0.90;;;19.90;96.80;;;;;;5087528;28;20051;-65
2022/07/16 09:42:18;;;;;;;4.82;0.75;;;19.80;96.80;;;;;;5088841;28;20530;-65
2022/07/16 09:44:44;;;;;;;3.75;0.90;;;19.50;97.00;;;;;;5121760;27;20391;-64
2022/07/16 09:47:13;;;;;;;4.38;1.27;;;19.40;97.40;;;;;;5090278;28;20028;-64
2022/07/16 09:49:49;;;;;;;6.50;1.48;;;19.30;97.50;;;;;;5089146;28;20448;-65
2022/07/16 09:52:32;;;;;;;6.85;1.38;;;19.20;97.80;;;;;;5122436;28;20052;-65
2022/07/16 09:54:59;;;;;;;3.72;0.63;;;19.50;97.80;;;;;;5089128;28;20036;-64
2022/07/16 09:57:27;;;;;;;3.03;0.70;;;19.90;98.30;;;;;;5071783;28;20052;-63
2022/07/16 09:59:54;;;;;;;3.53;0.75;;;20.20;98.00;;;;;;5088267;28;20420;-62
2022/07/16 10:02:20;;;;;;;3.97;0.70;;;20.40;97.80;;;;;;5089961;28;20160;-62
2022/07/16 10:04:46;;;;;;;4.75;0.90;;;20.70;98.00;;;;;;5090712;28;20104;-62
2022/07/16 10:07:12;;;;;;;2.28;0.95;;;20.50;96.50;;;;;;5087037;28;20048;-63
2022/07/16 10:09:37;;;;;;;4.80;1.10;;;20.20;96.20;;;;;;5089374;28;20032;-64
2022/07/16 10:12:10;;;;;;;2.95;0.98;;;20.40;96.90;;;;;;5088174;28;20039;-63
2022/07/16 10:14:39;;;;;;;3.38;0.70;;;20.50;95.90;;;;;;5121056;28;20502;-64
2022/07/16 10:17:23;;;;;;;3.55;0.95;;;20.40;94.80;;;;;;5089297;28;20052;-63
2022/07/16 10:20:08;;;;;;;2.83;0.85;;;20.50;95.40;;;;;;5089342;28;20047;-63
2022/07/16 10:22:35;;;;;;;7.15;1.20;;;20.10;94.00;;;;;;5089649;28;20115;-62
2022/07/16 10:25:00;;;;;;;2.33;0.60;;;20.10;96.30;;;;;;5087660;28;20080;-63
2022/07/16 10:27:30;;;;;;;2.97;0.82;;;20.10;96.70;;;;;;5089393;28;20098;-63
2022/07/16 10:30:14;;;;;;;3.60;0.63;;;19.90;96.30;;;;;;5089669;28;20469;-63
2022/07/16 10:33:12;;;;;;;3.90;0.90;;;19.60;96.60;;;;;;5086826;28;20048;-62
2022/07/16 10:35:49;;;;;;;2.33;0.68;;;19.40;97.20;;;;;;5088191;28;20052;-63
2022/07/16 10:38:19;;;;;;;6.05;1.10;;;19.20;97.20;;;;;;5088063;28;20132;-62
2022/07/16 10:40:46;;;;;;;5.38;1.13;;;19.00;97.40;;;;;;5086220;28;20040;-63
2022/07/16 10:43:13;;;;;;;4.18;0.63;;;19.30;97.90;;;;;;5089104;28;20521;-62
2022/07/16 10:45:54;;;;;;;3.67;0.80;;;19.90;98.80;;;;;;5077328;28;20101;-64
2022/07/16 10:48:30;;;;;;;2.70;0.60;;;20.40;97.50;;;;;;5091361;28;20028;-62
2022/07/16 10:51:17;;;;;;;5.70;0.80;;;20.70;96.60;;;;;;5072246;28;20051;-62
2022/07/16 10:53:58;;;;;;;2.33;0.60;;;21.30;96.60;;;;;;5074719;28;20051;-62
2022/07/16 10:56:48;;;;;;;2.80;0.65;;;21.60;94.70;;;;;;5125878;27;20040;-62
2022/07/16 10:59:16;;;;;;;3.83;0.77;;;21.60;94.40;;;;;;5085307;28;20441;-62
2022/07/16 11:01:44;;;;;;;3.35;0.85;;;21.30;93.50;;;;;;5091578;28;20044;-63
2022/07/16 11:04:10;;;;;;;3.35;0.70;;;21.30;94.40;;;;;;5095290;28;20555;-63
2022/07/16 11:06:37;;;;;;;4.35;0.90;;;21.20;95.00;;;;;;5091637;28;20048;-63
2022/07/16 11:09:05;;;;;;;3.05;0.93;;;21.20;95.10;;;;;;5091708;28;20048;-64
2022/07/16 11:11:40;;;;;;;4.95;1.08;;;21.30;94.70;;;;;;5089013;28;20040;-62
2022/07/16 11:14:08;;;;;;;2.90;0.70;;;21.50;94.80;;;;;;5090014;28;20081;-63
2022/07/16 11:16:35;;;;;;;6.05;0.80;;;21.60;93.90;;;;;;5092070;28;20097;-62
2022/07/16 11:19:02;;;;;;;3.92;1.10;;;21.70;93.70;;;;;;5092894;28;20039;-64
2022/07/16 11:21:28;;;;;;;2.38;0.73;;;21.60;93.40;;;;;;5089103;28;20028;-63
2022/07/16 11:23:56;;;;;;;2.35;1.00;;;21.30;93.60;;;;;;5092357;28;20032;-63
2022/07/16 11:26:23;;;;;;;6.78;1.23;;;20.80;93.80;;;;;;5091539;28;20482;-62
2022/07/16 11:28:58;;;;;;;4.30;1.23;;;20.50;94.00;;;;;;5093324;28;20795;-63
2022/07/16 11:31:28;;;;;;;3.47;0.73;;;20.20;94.80;;;;;;5089156;28;20031;-61
2022/07/16 11:33:58;;;;;;;3.85;0.90;;;20.00;94.70;;;;;;5125213;27;20052;-62
2022/07/16 11:36:35;;;;;;;5.93;1.00;;;20.20;95.50;;;;;;5092938;28;20136;-63
2022/07/16 11:39:06;;;;;;;2.70;0.90;;;20.30;95.60;;;;;;5090566;28;20113;-64
2022/07/16 11:41:33;;;;;;;5.53;0.80;;;20.70;96.00;;;;;;5090828;28;20177;-62
2022/07/16 11:44:00;;;;;;;3.80;0.88;;;21.00;95.60;;;;;;5091775;28;20516;-63
2022/07/16 11:46:28;;;;;;;4.53;0.70;;;20.90;94.70;;;;;;5089643;28;20044;-63
2022/07/16 11:48:54;;;;;;;4.47;0.90;;;21.20;95.50;;;;;;5091147;28;20028;-64
2022/07/16 11:51:21;;;;;;;4.40;0.70;;;21.20;95.30;;;;;;5089289;28;20556;-64
2022/07/16 11:53:55;;;;;;;5.20;1.00;;;21.10;94.60;;;;;;5091804;28;20501;-62
2022/07/16 11:56:32;;;;;;;3.78;0.65;;;20.90;94.30;;;;;;5089484;28;20170;-62
2022/07/16 11:58:58;;;;;;;3.85;0.90;;;20.70;94.30;;;;;;5090679;28;20486;-64
2022/07/16 12:01:24;;;;;;;4.40;0.73;;;20.70;95.40;;;;;;5088952;28;20044;-63
2022/07/16 12:03:56;;;;;;;3.35;0.70;;;20.60;95.60;;;;;;5091756;28;20047;-63
2022/07/16 12:06:22;;;;;;;3.67;0.70;;;20.50;96.10;;;;;;5091522;28;20032;-63
2022/07/16 12:08:55;;;;;;;3.92;1.05;;;20.50;96.20;;;;;;5090017;28;20047;-65
2022/07/16 12:11:30;;;;;;;4.40;0.90;;;20.60;96.10;;;;;;5090178;28;20058;-63
2022/07/16 12:13:55;;;;;;;5.30;0.80;;;20.40;95.90;;;;;;5092265;28;20518;-63
2022/07/16 12:16:22;;;;;;;5.13;1.05;;;20.60;95.90;;;;;;5093506;28;20039;-63
2022/07/16 12:19:04;;;;;;;3.92;0.88;;;20.70;96.60;;;;;;5091512;28;20283;-63
2022/07/16 12:21:39;;;;;;;3.97;0.70;;;20.50;95.60;;;;;;5090286;28;20044;-64
2022/07/16 12:24:09;;;;;;;5.00;0.90;;;20.20;95.70;;;;;;5123636;27;20070;-64
2022/07/16 12:26:37;;;;;;;3.10;0.60;;;20.00;96.30;;;;;;5089478;28;20494;-63
2022/07/16 12:29:05;;;;;;;7.32;1.52;;;19.90;96.30;;;;;;5090829;28;20047;-63
2022/07/16 12:31:32;;;;;;;3.83;0.70;;;20.00;96.30;;;;;;5123867;27;20044;-63
2022/07/16 12:34:01;;;;;;;4.85;0.88;;;20.10;95.60;;;;;;5072605;28;20051;-64
2022/07/16 12:36:38;;;;;;;4.82;1.27;;;20.30;94.90;;;;;;5086060;28;20044;-65
2022/07/16 12:39:09;;;;;;;5.68;0.90;;;20.40;94.50;;;;;;5090961;28;20110;-63
2022/07/16 12:41:42;;;;;;;3.40;0.70;;;20.40;94.90;;;;;;5090312;28;20024;-63
2022/07/16 12:44:10;;;;;;;5.63;0.90;;;20.30;95.00;;;;;;5088304;28;20379;-63
2022/07/16 12:46:48;;;;;;;3.72;0.80;;;20.30;94.30;;;;;;5090945;28;20050;-61
2022/07/16 12:49:20;;;;;;;2.75;0.93;;;20.40;94.60;;;;;;5123930;27;20486;-63
2022/07/16 12:51:59;;;;;;;;;;;20.10;94.30;;;;;;5085618;28;20618;-62
2022/07/16 12:54:25;;;;;;;6.68;1.10;;;20.10;93.90;;;;;;5122991;27;19923;-64
2022/07/16 12:59:35;;;;;;;2.60;0.70;;;20.30;94.40;;;;;;5089549;28;20044;-64
2022/07/16 13:02:02;;;;;;;3.08;0.70;;;20.40;94.10;;;;;;5089466;28;20093;-63